createdAt,value
2019-01-06T00:11:51.111Z,1006.36
2019-01-06T00:40:29.433Z,1006.96
2019-01-06T01:09:06.889Z,1007.27
2019-01-06T01:37:42.306Z,1007.53
2019-01-06T02:06:18.502Z,1007.73
2019-01-06T02:34:53.078Z,1007.66
2019-01-06T03:03:32.040Z,1007.72
2019-01-06T03:32:06.580Z,1007.75
2019-01-06T04:00:44.457Z,1007.91
2019-01-06T04:29:22.172Z,1007.99
2019-01-06T04:58:02.597Z,1008.17
2019-01-06T05:26:37.767Z,1008.41
2019-01-06T05:55:16.652Z,1008.83
2019-01-06T06:23:56.371Z,1009.09
2019-01-06T06:52:30.654Z,1009.36
2019-01-06T07:21:09.084Z,1009.7
2019-01-06T07:49:47.930Z,1009.91
2019-01-06T08:18:27.848Z,1010.31
2019-01-06T08:47:07.653Z,1010.43
2019-01-06T09:15:45.041Z,1010.44
2019-01-06T09:44:27.365Z,1010.6
2019-01-06T10:13:06.765Z,1010.59
2019-01-06T10:41:48.176Z,1010.6
2019-01-06T11:10:30.761Z,1010.6
2019-01-06T11:39:11.594Z,1010.45
2019-01-06T12:07:51.299Z,1010.25
2019-01-06T12:36:29.514Z,1010.2
2019-01-06T13:05:05.954Z,1010.23
2019-01-06T13:33:43.439Z,1010.53
2019-01-06T14:02:21.515Z,1010.7
2019-01-06T14:30:59.194Z,1010.79
2019-01-06T14:59:36.161Z,1010.79
2019-01-06T15:28:15.135Z,1010.9
2019-01-06T15:56:52.741Z,1010.92
2019-01-06T16:25:31.985Z,1011.08
2019-01-06T16:54:10.293Z,1011.11
2019-01-06T17:22:48.443Z,1011.29
2019-01-06T17:51:27.255Z,1011.38
2019-01-06T18:20:04.891Z,1011.23
2019-01-06T18:48:43.270Z,1011.11
2019-01-06T19:17:22.027Z,1011.24
2019-01-06T19:45:59.665Z,1011.24
2019-01-06T20:14:36.749Z,1011.11
2019-01-06T20:43:16.295Z,1011.36
2019-01-06T21:11:53.744Z,1011.29
2019-01-06T21:40:31.094Z,1011.38
2019-01-06T22:09:09.269Z,1011.36
2019-01-06T22:37:48.496Z,1011.26
2019-01-06T23:06:27.811Z,1011.25
2019-01-06T23:35:08.372Z,1011.3
